| time (UTC) | temp F | wind direction | speed MPH | gust MPH | rain 1hr in | rain 24hr in | rain mn in | humidity % | barometer mb |
| 20260502234818 | 64 | 212 | 1.0 | 2.0 | 0.00 | 0.00 | 0.00 | 37 | 1011.9 |
| 20260502233856 | 64 | 209 | 0.0 | 1.0 | 0.00 | 0.00 | 0.00 | 38 | 1011.9 |
| 20260502232819 | 65 | 209 | 1.0 | 2.0 | 0.00 | 0.00 | 0.00 | 37 | 1011.9 |
| 20260502231827 | 65 | 197 | 1.0 | 2.0 | 0.00 | 0.00 | 0.00 | 36 | 1012.1 |
| 20260502230819 | 65 | 189 | 0.0 | 1.0 | 0.00 | 0.00 | 0.00 | 38 | 1012.3 |
| 20260502225827 | 64 | 207 | 1.0 | 2.0 | 0.00 | 0.00 | 0.00 | 37 | 1012.3 |
| 20260502224819 | 64 | 175 | 0.0 | 2.0 | 0.00 | 0.00 | 0.00 | 36 | 1012.3 |
| 20260502223857 | 64 | 220 | 1.0 | 2.0 | 0.00 | 0.00 | 0.00 | 36 | 1012.6 |
| 20260502222819 | 64 | 253 | 3.0 | 8.0 | 0.00 | 0.00 | 0.00 | 34 | 1012.6 |
| 20260502221827 | 65 | 222 | 2.0 | 3.0 | 0.00 | 0.00 | 0.00 | 35 | 1012.7 |
| 20260502220819 | 66 | 236 | 2.0 | 7.0 | 0.00 | 0.00 | 0.00 | 34 | 1012.8 |
| 20260502215827 | 66 | 207 | 2.0 | 7.0 | 0.00 | 0.00 | 0.00 | 35 | 1012.9 |
| 20260502214819 | 66 | 224 | 2.0 | 6.0 | 0.00 | 0.00 | 0.00 | 34 | 1013.0 |
| 20260502213826 | 66 | 259 | 2.0 | 4.0 | 0.00 | 0.00 | 0.00 | 34 | 1013.0 |
| 20260502212849 | 65 | 256 | 3.0 | 6.0 | 0.00 | 0.00 | 0.00 | 35 | 1013.3 |
| 20260502211857 | 66 | 206 | 2.0 | 3.0 | 0.00 | 0.00 | 0.00 | 34 | 1013.5 |
| 20260502210819 | 68 | 257 | 3.0 | 9.0 | 0.00 | 0.00 | 0.00 | 32 | 1013.6 |
| 20260502205826 | 66 | 213 | 1.0 | 3.0 | 0.00 | 0.00 | 0.00 | 34 | 1013.8 |
| 20260502204849 | 66 | 255 | 2.0 | 7.0 | 0.00 | 0.00 | 0.00 | 33 | 1014.0 |
| 20260502203927 | 66 | 231 | 3.0 | 11.0 | 0.00 | 0.00 | 0.00 | 34 | 1014.3 |
| 20260502202819 | 66 | 200 | 2.0 | 4.0 | 0.00 | 0.00 | 0.00 | 34 | 1014.6 |
| 20260502201957 | 66 | 293 | 5.0 | 8.0 | 0.00 | 0.00 | 0.00 | 33 | 1014.7 |
| 20260502200819 | 65 | 153 | 4.0 | 8.0 | 0.00 | 0.00 | 0.00 | 34 | 1015.1 |
| 20260502195827 | 65 | 179 | 3.0 | 6.0 | 0.00 | 0.00 | 0.00 | 35 | 1015.2 |
| 20260502194819 | 64 | 203 | 2.0 | 6.0 | 0.00 | 0.00 | 0.00 | 35 | 1015.3 |
| 20260502193826 | 64 | 202 | 3.0 | 6.0 | 0.00 | 0.00 | 0.00 | 35 | 1015.4 |
| 20260502192819 | 62 | 247 | 3.0 | 6.0 | 0.00 | 0.00 | 0.00 | 34 | 1015.7 |
| 20260502191827 | 62 | 251 | 2.0 | 6.0 | 0.00 | 0.00 | 0.00 | 36 | 1015.8 |
| 20260502190818 | 63 | 245 | 3.0 | 7.0 | 0.00 | 0.00 | 0.00 | 35 | 1016.1 |
| 20260502185827 | 61 | 194 | 4.0 | 7.0 | 0.00 | 0.00 | 0.00 | 37 | 1016.3 |
| 20260502184849 | 62 | 213 | 2.0 | 4.0 | 0.00 | 0.00 | 0.00 | 36 | 1016.8 |
| 20260502183826 | 61 | 213 | 2.0 | 6.0 | 0.00 | 0.00 | 0.00 | 37 | 1016.6 |
| 20260502182819 | 61 | 263 | 4.0 | 8.0 | 0.00 | 0.00 | 0.00 | 35 | 1016.8 |
| 20260502181828 | 61 | 201 | 3.0 | 6.0 | 0.00 | 0.00 | 0.00 | 36 | 1017.0 |
| 20260502180819 | 60 | 236 | 2.0 | 6.0 | 0.00 | 0.00 | 0.00 | 36 | 1017.1 |
| 20260502163827 | 57 | 221 | 1.0 | 3.0 | 0.00 | 0.00 | 0.00 | 41 | 1018.7 |
| 20260502162818 | 56 | 230 | 2.0 | 6.0 | 0.00 | 0.00 | 0.00 | 41 | 1018.7 |
| 20260502161828 | 56 | 249 | 3.0 | 7.0 | 0.00 | 0.00 | 0.00 | 40 | 1018.9 |
| 20260502160820 | 56 | 204 | 3.0 | 7.0 | 0.00 | 0.00 | 0.00 | 38 | 1019.1 |
| 20260502151827 | 54 | 244 | 3.0 | 4.0 | 0.00 | 0.00 | 0.00 | 45 | 1019.5 |
| 20260502150819 | 53 | 185 | 1.0 | 3.0 | 0.00 | 0.00 | 0.00 | 48 | 1019.3 |
| 20260502122849 | 40 | 221 | 1.0 | 3.0 | 0.00 | 0.00 | 0.00 | 73 | 1019.8 |
| 20260502121827 | 39 | 0.0 | 0.0 | 0.00 | 0.00 | 0.00 | 75 | 1019.8 | |
| 20260502120819 | 38 | 0.0 | 0.0 | 0.00 | 0.00 | 0.00 | 75 | 1019.8 | |
| 20260502115827 | 37 | 0.0 | 0.0 | 0.00 | 0.00 | 0.00 | 77 | 1019.9 | |
| 20260502114819 | 37 | 0.0 | 0.0 | 0.00 | 0.00 | 0.00 | 77 | 1019.9 | |
| 20260502113826 | 36 | 0.0 | 0.0 | 0.00 | 0.00 | 0.00 | 78 | 1019.8 | |
| 20260502112819 | 36 | 0.0 | 0.0 | 0.00 | 0.00 | 0.00 | 79 | 1019.8 | |
| 20260502111857 | 35 | 0.0 | 0.0 | 0.00 | 0.00 | 0.00 | 81 | 1019.6 | |
| 20260502110819 | 34 | 0.0 | 0.0 | 0.00 | 0.00 | 0.00 | 81 | 1019.6 | |
| 20260502105857 | 35 | 0.0 | 0.0 | 0.00 | 0.00 | 0.00 | 81 | 1019.6 | |
| 20260502104819 | 34 | 0.0 | 0.0 | 0.00 | 0.00 | 0.00 | 80 | 1019.6 | |
| 20260502103827 | 35 | 0.0 | 0.0 | 0.00 | 0.00 | 0.00 | 79 | 1019.6 | |
| 20260502102819 | 35 | 0.0 | 0.0 | 0.00 | 0.00 | 0.00 | 77 | 1019.5 | |
| 20260502101857 | 36 | 0.0 | 0.0 | 0.00 | 0.00 | 0.00 | 76 | 1019.6 | |
| 20260502100849 | 37 | 0.0 | 0.0 | 0.00 | 0.00 | 0.00 | 75 | 1019.6 | |
| 20260502090819 | 36 | 0.0 | 0.0 | 0.00 | 0.00 | 0.00 | 78 | 1019.3 | |
| 20260502070850 | 36 | 0.0 | 0.0 | 0.00 | 0.00 | 0.00 | 74 | 1019.7 | |
| 20260502065828 | 37 | 0.0 | 0.0 | 0.00 | 0.00 | 0.00 | 73 | 1019.7 | |
| 20260502064920 | 37 | 0.0 | 0.0 | 0.00 | 0.00 | 0.00 | 72 | 1019.9 | |
| 20260502063827 | 38 | 0.0 | 0.0 | 0.00 | 0.00 | 0.00 | 70 | 1019.8 | |
| 20260502062819 | 38 | 0.0 | 0.0 | 0.00 | 0.00 | 0.00 | 71 | 1020.0 | |
| 20260502061828 | 39 | 0.0 | 0.0 | 0.00 | 0.00 | 0.00 | 70 | 1019.8 | |
| 20260502060819 | 37 | 0.0 | 0.0 | 0.00 | 0.00 | 0.00 | 72 | 1020.0 | |
| 20260502055827 | 38 | 0.0 | 0.0 | 0.00 | 0.00 | 0.00 | 70 | 1020.0 | |
| 20260502054818 | 39 | 0.0 | 0.0 | 0.00 | 0.00 | 0.00 | 70 | 1020.0 | |
| 20260502053817 | 39 | 0.0 | 0.0 | 0.00 | 0.00 | 0.00 | 69 | 1020.0 | |
| 20260502052825 | 39 | 0.0 | 0.0 | 0.00 | 0.00 | 0.00 | 69 | 1020.0 | |
| 20260502051817 | 39 | 0.0 | 0.0 | 0.00 | 0.00 | 0.00 | 68 | 1019.9 | |
| 20260502050825 | 40 | 0.0 | 0.0 | 0.00 | 0.00 | 0.00 | 67 | 1019.9 | |
| 20260502045817 | 39 | 0.0 | 0.0 | 0.00 | 0.00 | 0.00 | 68 | 1019.8 | |
| 20260502044855 | 40 | 0.0 | 0.0 | 0.00 | 0.00 | 0.00 | 66 | 1019.8 | |
| 20260502043817 | 40 | 0.0 | 0.0 | 0.00 | 0.00 | 0.00 | 65 | 1019.7 | |
| 20260502042824 | 40 | 0.0 | 0.0 | 0.00 | 0.00 | 0.00 | 65 | 1019.8 | |
| 20260502041817 | 41 | 0.0 | 0.0 | 0.00 | 0.00 | 0.00 | 65 | 1019.8 | |
| 20260502040825 | 41 | 0.0 | 0.0 | 0.00 | 0.00 | 0.00 | 63 | 1019.8 | |
| 20260502035847 | 41 | 0.0 | 0.0 | 0.00 | 0.00 | 0.00 | 62 | 1019.7 | |
| 20260502034825 | 41 | 0.0 | 0.0 | 0.00 | 0.00 | 0.00 | 61 | 1019.9 | |
| 20260502033817 | 42 | 0.0 | 0.0 | 0.00 | 0.00 | 0.00 | 59 | 1019.9 | |
| 20260502032825 | 42 | 0.0 | 0.0 | 0.00 | 0.00 | 0.00 | 58 | 1019.9 | |
| 20260502031817 | 42 | 0.0 | 0.0 | 0.00 | 0.00 | 0.00 | 55 | 1019.8 | |
| 20260502030825 | 42 | 0.0 | 0.0 | 0.00 | 0.00 | 0.00 | 53 | 1019.9 | |
| 20260502025818 | 43 | 0.0 | 0.0 | 0.00 | 0.00 | 0.00 | 52 | 1019.9 | |
| 20260502024825 | 43 | 0.0 | 0.0 | 0.00 | 0.00 | 0.00 | 52 | 1019.7 | |
| 20260502023918 | 43 | 0.0 | 0.0 | 0.00 | 0.00 | 0.00 | 53 | 1019.8 | |
| 20260502022824 | 43 | 0.0 | 0.0 | 0.00 | 0.00 | 0.00 | 54 | 1019.9 | |
| 20260502021817 | 43 | 0.0 | 0.0 | 0.00 | 0.00 | 0.00 | 52 | 1019.8 | |
| 20260502020825 | 44 | 0.0 | 0.0 | 0.00 | 0.00 | 0.00 | 48 | 1019.7 | |
| 20260502015817 | 45 | 0.0 | 0.0 | 0.00 | 0.00 | 0.00 | 44 | 1019.6 | |
| 20260502014825 | 45 | 0.0 | 0.0 | 0.00 | 0.00 | 0.00 | 44 | 1019.4 | |
| 20260502013817 | 46 | 0.0 | 0.0 | 0.00 | 0.00 | 0.00 | 42 | 1019.4 | |
| 20260502012925 | 46 | 0.0 | 0.0 | 0.00 | 0.00 | 0.00 | 44 | 1019.3 | |
| 20260502011817 | 47 | 0.0 | 0.0 | 0.00 | 0.00 | 0.00 | 41 | 1019.3 | |
| 20260502010825 | 48 | 0.0 | 0.0 | 0.00 | 0.00 | 0.00 | 38 | 1019.3 | |
| 20260502005817 | 48 | 0.0 | 0.0 | 0.00 | 0.00 | 0.00 | 38 | 1019.3 | |
| 20260502004925 | 49 | 0.0 | 0.0 | 0.00 | 0.00 | 0.00 | 37 | 1019.2 | |
| 20260502003928 | 50 | 225 | 1.0 | 2.0 | 0.00 | 0.00 | 0.00 | 35 | 1019.3 |
| 20260502002849 | 50 | 187 | 1.0 | 2.0 | 0.00 | 0.00 | 0.00 | 35 | 1019.2 |
| 20260502001828 | 50 | 226 | 1.0 | 4.0 | 0.00 | 0.00 | 0.00 | 34 | 1019.2 |
| 20260502000820 | 51 | 243 | 2.0 | 4.0 | 0.00 | 0.00 | 0.00 | 34 | 1019.0 |
| 20260501235828 | 51 | 242 | 1.0 | 2.0 | 0.00 | 0.00 | 0.00 | 35 | 1019.1 |